PGT77LQ LHBP-LTFJ
Flight info
| Callsign | PGT77LQ |
|---|---|
| Flight time | 1h 55m |
| Altitude | 39000 |
| Route | GAZDA DCT MAVIR DCT INVED DCT TIMUR L606 ADORU UM19 IBODU |
| Aircraft | A320/M-SDE2E3FGHIJ3J4J5M1RWXYZ/LB1D1 |
Departure
| Time | 2026-05-08 06:03 |
|---|---|
| Airport | Budapest Liszt Ferenc International Airport (LHBP) |
Arrival
| Time | 2026-05-08 07:58 |
|---|---|
| Airport | Istanbul Sabiha Gökçen International Airport (LTFJ) |
| Time | Latitude | Longitude | Altitude | Speed | Heading |
|---|---|---|---|---|---|
| 2026-05-08 05:26 | 47.43120 | 19.25966 | 458 ft | 0 kts | 42° |
| 2026-05-08 05:52 | 47.43108 | 19.25951 | 457 ft | 4 kts | 39° |
| 2026-05-08 05:52 | 47.43086 | 19.25927 | 457 ft | 4 kts | 30° |
| 2026-05-08 05:52 | 47.43071 | 19.25915 | 457 ft | 4 kts | 17° |
| 2026-05-08 05:53 | 47.43047 | 19.25912 | 457 ft | 4 kts | 325° |
| 2026-05-08 05:53 | 47.43040 | 19.25922 | 457 ft | 1 kts | 312° |
| 2026-05-08 05:53 | 47.43039 | 19.25922 | 457 ft | 0 kts | 312° |
| 2026-05-08 05:58 | 47.43040 | 19.25922 | 457 ft | 1 kts | 312° |
| 2026-05-08 05:59 | 47.43041 | 19.25920 | 457 ft | 0 kts | 312° |
| 2026-05-08 05:59 | 47.43042 | 19.25918 | 457 ft | 1 kts | 312° |
| 2026-05-08 05:59 | 47.43049 | 19.25907 | 456 ft | 2 kts | 313° |
| 2026-05-08 05:59 | 47.43063 | 19.25884 | 457 ft | 4 kts | 313° |
| 2026-05-08 06:00 | 47.43087 | 19.25846 | 455 ft | 6 kts | 311° |
| 2026-05-08 06:00 | 47.43125 | 19.25784 | 457 ft | 10 kts | 313° |
| 2026-05-08 06:00 | 47.43180 | 19.25697 | 456 ft | 13 kts | 313° |
| 2026-05-08 06:00 | 47.43246 | 19.25591 | 456 ft | 16 kts | 313° |
| 2026-05-08 06:01 | 47.43311 | 19.25486 | 457 ft | 10 kts | 313° |
| 2026-05-08 06:01 | 47.43339 | 19.25388 | 457 ft | 12 kts | 251° |
| 2026-05-08 06:01 | 47.43277 | 19.25298 | 456 ft | 14 kts | 222° |
| 2026-05-08 06:01 | 47.43200 | 19.25194 | 457 ft | 16 kts | 223° |
| 2026-05-08 06:02 | 47.43118 | 19.25081 | 457 ft | 13 kts | 224° |
| 2026-05-08 06:02 | 47.43104 | 19.24951 | 457 ft | 15 kts | 295° |
| 2026-05-08 06:02 | 47.43192 | 19.24794 | 456 ft | 38 kts | 313° |
| 2026-05-08 06:02 | 47.43532 | 19.24239 | 452 ft | 107 kts | 312° |
| 2026-05-08 06:03 | 47.44156 | 19.23227 | 454 ft | 158 kts | 312° |
| 2026-05-08 06:03 | 47.44959 | 19.21950 | 847 ft | 170 kts | 313° |
| 2026-05-08 06:03 | 47.45770 | 19.20677 | 1566 ft | 169 kts | 313° |
| 2026-05-08 06:03 | 47.46565 | 19.19390 | 2263 ft | 171 kts | 313° |
| 2026-05-08 06:04 | 47.47404 | 19.18020 | 2624 ft | 191 kts | 311° |
| 2026-05-08 06:04 | 47.48340 | 19.16457 | 2911 ft | 215 kts | 307° |
| 2026-05-08 06:04 | 47.49084 | 19.14414 | 3299 ft | 239 kts | 288° |
| 2026-05-08 06:04 | 47.49326 | 19.11928 | 3834 ft | 256 kts | 266° |
| 2026-05-08 06:05 | 47.48924 | 19.09345 | 4667 ft | 262 kts | 246° |
| 2026-05-08 06:05 | 47.47895 | 19.07114 | 5530 ft | 268 kts | 225° |
| 2026-05-08 06:05 | 47.46330 | 19.05592 | 6387 ft | 274 kts | 202° |
| 2026-05-08 06:05 | 47.44503 | 19.04703 | 7244 ft | 278 kts | 199° |
| 2026-05-08 06:06 | 47.42653 | 19.03843 | 8090 ft | 281 kts | 199° |
| 2026-05-08 06:06 | 47.40771 | 19.02967 | 8927 ft | 285 kts | 199° |
| 2026-05-08 06:06 | 47.38872 | 19.02076 | 9752 ft | 288 kts | 199° |
| 2026-05-08 06:06 | 47.36980 | 19.01154 | 10439 ft | 297 kts | 202° |
| 2026-05-08 06:07 | 47.35001 | 18.99960 | 10694 ft | 319 kts | 206° |
| 2026-05-08 06:07 | 47.32958 | 18.98542 | 11233 ft | 329 kts | 208° |
| 2026-05-08 06:07 | 47.30890 | 18.97060 | 11967 ft | 332 kts | 208° |
| 2026-05-08 06:07 | 47.28799 | 18.95576 | 12741 ft | 334 kts | 208° |
| 2026-05-08 06:08 | 47.26695 | 18.94101 | 13483 ft | 336 kts | 208° |
| 2026-05-08 06:08 | 47.24570 | 18.92629 | 14198 ft | 338 kts | 208° |
| 2026-05-08 06:08 | 47.22428 | 18.91160 | 14888 ft | 341 kts | 207° |
| 2026-05-08 06:08 | 47.20300 | 18.89707 | 15535 ft | 343 kts | 207° |
| 2026-05-08 06:09 | 47.18129 | 18.88229 | 16189 ft | 345 kts | 207° |
| 2026-05-08 06:09 | 47.15933 | 18.86746 | 16822 ft | 349 kts | 206° |
| 2026-05-08 06:09 | 47.13576 | 18.85790 | 17434 ft | 357 kts | 190° |
| 2026-05-08 06:09 | 47.11072 | 18.85903 | 18009 ft | 367 kts | 173° |
| 2026-05-08 06:10 | 47.08635 | 18.87173 | 18588 ft | 378 kts | 155° |
| 2026-05-08 06:10 | 47.06531 | 18.89555 | 19134 ft | 389 kts | 136° |
| 2026-05-08 06:10 | 47.04842 | 18.92702 | 19662 ft | 395 kts | 130° |
| 2026-05-08 06:10 | 47.03211 | 18.95896 | 20187 ft | 398 kts | 130° |
| 2026-05-08 06:11 | 47.01544 | 18.99161 | 20693 ft | 401 kts | 131° |
| 2026-05-08 06:11 | 46.99861 | 19.02440 | 21185 ft | 404 kts | 131° |
| 2026-05-08 06:11 | 46.98162 | 19.05736 | 21664 ft | 407 kts | 131° |
| 2026-05-08 06:11 | 46.96446 | 19.09052 | 22139 ft | 410 kts | 131° |
| 2026-05-08 06:12 | 46.94715 | 19.12389 | 22593 ft | 413 kts | 131° |
| 2026-05-08 06:12 | 46.92976 | 19.15741 | 23044 ft | 415 kts | 131° |
| 2026-05-08 06:12 | 46.91224 | 19.19119 | 23476 ft | 418 kts | 131° |
| 2026-05-08 06:12 | 46.89484 | 19.22470 | 23890 ft | 420 kts | 131° |
| 2026-05-08 06:13 | 46.87710 | 19.25884 | 24295 ft | 423 kts | 131° |
| 2026-05-08 06:13 | 46.85928 | 19.29312 | 24713 ft | 426 kts | 132° |
| 2026-05-08 06:13 | 46.84128 | 19.32768 | 25072 ft | 429 kts | 132° |
| 2026-05-08 06:13 | 46.82311 | 19.36255 | 25432 ft | 433 kts | 133° |
| 2026-05-08 06:14 | 46.80332 | 19.39541 | 25790 ft | 430 kts | 141° |
| 2026-05-08 06:14 | 46.78055 | 19.42342 | 26131 ft | 427 kts | 149° |
| 2026-05-08 06:14 | 46.75646 | 19.44894 | 26459 ft | 430 kts | 149° |
| 2026-05-08 06:14 | 46.73214 | 19.47457 | 26780 ft | 433 kts | 150° |
| 2026-05-08 06:15 | 46.70796 | 19.50004 | 27092 ft | 436 kts | 150° |
| 2026-05-08 06:15 | 46.68331 | 19.52600 | 27413 ft | 439 kts | 150° |
| 2026-05-08 06:15 | 46.65849 | 19.55217 | 27710 ft | 442 kts | 150° |
| 2026-05-08 06:15 | 46.63346 | 19.57854 | 27998 ft | 446 kts | 150° |
| 2026-05-08 06:16 | 46.60829 | 19.60506 | 28304 ft | 449 kts | 150° |
| 2026-05-08 06:16 | 46.58293 | 19.63175 | 28591 ft | 452 kts | 150° |
| 2026-05-08 06:16 | 46.55739 | 19.65861 | 28865 ft | 455 kts | 150° |
| 2026-05-08 06:16 | 46.53165 | 19.68564 | 29142 ft | 458 kts | 150° |
| 2026-05-08 06:17 | 46.48016 | 19.73963 | 29724 ft | 462 kts | 150° |
| 2026-05-08 06:17 | 46.45407 | 19.76692 | 29991 ft | 464 kts | 150° |
| 2026-05-08 06:17 | 46.42792 | 19.79455 | 30249 ft | 468 kts | 148° |
| 2026-05-08 06:18 | 46.40363 | 19.82652 | 30502 ft | 477 kts | 138° |
| 2026-05-08 06:18 | 46.38259 | 19.86418 | 30755 ft | 485 kts | 129° |
| 2026-05-08 06:18 | 46.36483 | 19.90611 | 30986 ft | 490 kts | 125° |
| 2026-05-08 06:18 | 46.34763 | 19.94805 | 31224 ft | 492 kts | 125° |
| 2026-05-08 06:19 | 46.33010 | 19.99045 | 31559 ft | 491 kts | 126° |
| 2026-05-08 06:19 | 46.31249 | 20.03281 | 31912 ft | 490 kts | 126° |
| 2026-05-08 06:19 | 46.29485 | 20.07498 | 32253 ft | 489 kts | 126° |
| 2026-05-08 06:19 | 46.27723 | 20.11703 | 32590 ft | 489 kts | 126° |
| 2026-05-08 06:20 | 46.25964 | 20.15898 | 32914 ft | 488 kts | 126° |
| 2026-05-08 06:20 | 46.24204 | 20.20096 | 33230 ft | 487 kts | 126° |
| 2026-05-08 06:20 | 46.22473 | 20.24226 | 33540 ft | 487 kts | 126° |
| 2026-05-08 06:20 | 46.20719 | 20.28405 | 33844 ft | 486 kts | 126° |
| 2026-05-08 06:21 | 46.18967 | 20.32568 | 34135 ft | 486 kts | 126° |
| 2026-05-08 06:21 | 46.17211 | 20.36732 | 34428 ft | 485 kts | 126° |
| 2026-05-08 06:21 | 46.15351 | 20.40763 | 34740 ft | 480 kts | 133° |
| 2026-05-08 06:21 | 46.13215 | 20.44434 | 35006 ft | 476 kts | 136° |
| 2026-05-08 06:22 | 46.08908 | 20.51581 | 35077 ft | 468 kts | 136° |
| 2026-05-08 06:22 | 46.04671 | 20.58593 | 35079 ft | 467 kts | 136° |
| 2026-05-08 06:23 | 46.00413 | 20.65632 | 35078 ft | 466 kts | 136° |
| 2026-05-08 06:23 | 45.96154 | 20.72657 | 35080 ft | 467 kts | 136° |
| 2026-05-08 06:24 | 45.91874 | 20.79690 | 35086 ft | 468 kts | 136° |
| 2026-05-08 06:24 | 45.87602 | 20.86714 | 35080 ft | 467 kts | 136° |
| 2026-05-08 06:25 | 45.83358 | 20.93670 | 35084 ft | 466 kts | 136° |
| 2026-05-08 06:25 | 45.79074 | 21.00655 | 35082 ft | 466 kts | 136° |
| 2026-05-08 06:26 | 45.74800 | 21.07628 | 35084 ft | 465 kts | 136° |
| 2026-05-08 06:26 | 45.70528 | 21.14577 | 35081 ft | 465 kts | 136° |
| 2026-05-08 06:27 | 45.66251 | 21.21507 | 35075 ft | 464 kts | 136° |
| 2026-05-08 06:27 | 45.62004 | 21.28363 | 35069 ft | 464 kts | 136° |
| 2026-05-08 06:28 | 45.57725 | 21.35265 | 35070 ft | 464 kts | 136° |
| 2026-05-08 06:28 | 45.53440 | 21.42161 | 35070 ft | 464 kts | 136° |
| 2026-05-08 06:29 | 45.49157 | 21.49042 | 35078 ft | 464 kts | 136° |
| 2026-05-08 06:29 | 45.44894 | 21.55857 | 35069 ft | 464 kts | 136° |
| 2026-05-08 06:30 | 45.40599 | 21.62711 | 35070 ft | 463 kts | 136° |
| 2026-05-08 06:30 | 45.36310 | 21.69545 | 35070 ft | 463 kts | 136° |
| 2026-05-08 06:31 | 45.32012 | 21.76383 | 35073 ft | 463 kts | 137° |
| 2026-05-08 06:31 | 45.27740 | 21.83157 | 35072 ft | 463 kts | 137° |
| 2026-05-08 06:32 | 45.23431 | 21.89957 | 35072 ft | 463 kts | 137° |
| 2026-05-08 06:32 | 45.19123 | 21.96752 | 35080 ft | 463 kts | 137° |
| 2026-05-08 06:33 | 45.14810 | 22.03549 | 35077 ft | 464 kts | 137° |
| 2026-05-08 06:33 | 45.10518 | 22.10280 | 35078 ft | 463 kts | 137° |
| 2026-05-08 06:34 | 45.06201 | 22.17046 | 35071 ft | 463 kts | 136° |
| 2026-05-08 06:34 | 45.01870 | 22.23797 | 35071 ft | 463 kts | 136° |
| 2026-05-08 06:35 | 44.97542 | 22.30547 | 35069 ft | 464 kts | 136° |
| 2026-05-08 06:35 | 44.93203 | 22.37292 | 35070 ft | 463 kts | 136° |
| 2026-05-08 06:36 | 44.88895 | 22.43964 | 35066 ft | 463 kts | 136° |
| 2026-05-08 06:36 | 44.84559 | 22.50676 | 35061 ft | 463 kts | 136° |
| 2026-05-08 06:37 | 44.80212 | 22.57383 | 35068 ft | 463 kts | 136° |
| 2026-05-08 06:37 | 44.75865 | 22.64075 | 35063 ft | 463 kts | 136° |
| 2026-05-08 06:38 | 44.71544 | 22.70721 | 35072 ft | 463 kts | 137° |
| 2026-05-08 06:38 | 44.67189 | 22.77390 | 35065 ft | 463 kts | 137° |
| 2026-05-08 06:39 | 44.62830 | 22.84051 | 35067 ft | 463 kts | 136° |
| 2026-05-08 06:39 | 44.58459 | 22.90706 | 35077 ft | 463 kts | 136° |
| 2026-05-08 06:40 | 44.54090 | 22.97358 | 35069 ft | 464 kts | 136° |
| 2026-05-08 06:40 | 44.49749 | 23.03954 | 35078 ft | 463 kts | 136° |
| 2026-05-08 06:41 | 44.45374 | 23.10582 | 35081 ft | 463 kts | 136° |
| 2026-05-08 06:41 | 44.40995 | 23.17196 | 35085 ft | 463 kts | 136° |
| 2026-05-08 06:42 | 44.36618 | 23.23786 | 35077 ft | 462 kts | 137° |
| 2026-05-08 06:42 | 44.32270 | 23.30321 | 35084 ft | 462 kts | 136° |
| 2026-05-08 06:43 | 44.27890 | 23.36890 | 35085 ft | 462 kts | 136° |
| 2026-05-08 06:43 | 44.23502 | 23.43453 | 35095 ft | 462 kts | 136° |
| 2026-05-08 06:44 | 44.19120 | 23.49993 | 35079 ft | 461 kts | 136° |
| 2026-05-08 06:44 | 44.14763 | 23.56476 | 35090 ft | 462 kts | 136° |
| 2026-05-08 06:45 | 44.10369 | 23.62999 | 35095 ft | 462 kts | 136° |
| 2026-05-08 06:45 | 44.05977 | 23.69514 | 35077 ft | 461 kts | 136° |
| 2026-05-08 06:46 | 44.01596 | 23.76018 | 35086 ft | 461 kts | 136° |
| 2026-05-08 06:46 | 43.97231 | 23.82455 | 35082 ft | 460 kts | 137° |
| 2026-05-08 06:47 | 43.92829 | 23.88912 | 35087 ft | 460 kts | 137° |
| 2026-05-08 06:47 | 43.88430 | 23.95371 | 35087 ft | 461 kts | 137° |
| 2026-05-08 06:48 | 43.84035 | 24.01823 | 35093 ft | 460 kts | 137° |
| 2026-05-08 06:48 | 43.79640 | 24.08262 | 35079 ft | 460 kts | 137° |
| 2026-05-08 06:49 | 43.75235 | 24.14685 | 35096 ft | 460 kts | 137° |
| 2026-05-08 06:49 | 43.70849 | 24.21056 | 35082 ft | 461 kts | 137° |
| 2026-05-08 06:50 | 43.66393 | 24.27420 | 35087 ft | 461 kts | 139° |
| 2026-05-08 06:50 | 43.61776 | 24.33551 | 35077 ft | 461 kts | 140° |
| 2026-05-08 06:51 | 43.57111 | 24.39614 | 35084 ft | 462 kts | 140° |
| 2026-05-08 06:51 | 43.52498 | 24.45699 | 35073 ft | 462 kts | 140° |
| 2026-05-08 06:52 | 43.47875 | 24.51862 | 35077 ft | 463 kts | 140° |
| 2026-05-08 06:52 | 43.43233 | 24.58023 | 35074 ft | 464 kts | 140° |
| 2026-05-08 06:53 | 43.38574 | 24.64170 | 35076 ft | 465 kts | 140° |
| 2026-05-08 06:53 | 43.33932 | 24.70274 | 35073 ft | 466 kts | 140° |
| 2026-05-08 06:54 | 43.29239 | 24.76423 | 35076 ft | 466 kts | 140° |
| 2026-05-08 06:54 | 43.24548 | 24.82573 | 35069 ft | 467 kts | 140° |
| 2026-05-08 06:55 | 43.19845 | 24.88738 | 35068 ft | 468 kts | 140° |
| 2026-05-08 06:55 | 43.15154 | 24.94860 | 35069 ft | 469 kts | 140° |
| 2026-05-08 06:56 | 43.10417 | 25.01013 | 35066 ft | 470 kts | 140° |
| 2026-05-08 06:56 | 43.05668 | 25.07188 | 35071 ft | 471 kts | 140° |
| 2026-05-08 06:57 | 43.00910 | 25.13362 | 35076 ft | 472 kts | 140° |
| 2026-05-08 06:57 | 42.96142 | 25.19548 | 35071 ft | 473 kts | 140° |
| 2026-05-08 06:58 | 42.91396 | 25.25686 | 35068 ft | 474 kts | 140° |
| 2026-05-08 06:58 | 42.86602 | 25.31864 | 35071 ft | 474 kts | 140° |
| 2026-05-08 06:59 | 42.81799 | 25.38043 | 35067 ft | 475 kts | 140° |
| 2026-05-08 06:59 | 42.76984 | 25.44223 | 35067 ft | 476 kts | 140° |
| 2026-05-08 07:00 | 42.72160 | 25.50392 | 35067 ft | 477 kts | 140° |
| 2026-05-08 07:00 | 42.67354 | 25.56528 | 35065 ft | 478 kts | 140° |
| 2026-05-08 07:01 | 42.62502 | 25.62718 | 35065 ft | 479 kts | 140° |
| 2026-05-08 07:01 | 42.57635 | 25.68921 | 35065 ft | 480 kts | 140° |
| 2026-05-08 07:02 | 42.52760 | 25.75123 | 35076 ft | 481 kts | 140° |
| 2026-05-08 07:02 | 42.47862 | 25.81318 | 35070 ft | 482 kts | 141° |
| 2026-05-08 07:03 | 42.42979 | 25.87466 | 35080 ft | 483 kts | 141° |
| 2026-05-08 07:03 | 42.38061 | 25.93673 | 35076 ft | 484 kts | 141° |
| 2026-05-08 07:04 | 42.33120 | 25.99896 | 35080 ft | 485 kts | 141° |
| 2026-05-08 07:04 | 42.28177 | 26.06104 | 35075 ft | 486 kts | 141° |
| 2026-05-08 07:05 | 42.23248 | 26.12270 | 35077 ft | 486 kts | 141° |
| 2026-05-08 07:05 | 42.18276 | 26.18452 | 35096 ft | 487 kts | 141° |
| 2026-05-08 07:06 | 42.13288 | 26.24636 | 35098 ft | 487 kts | 141° |
| 2026-05-08 07:06 | 42.08300 | 26.30810 | 35101 ft | 487 kts | 141° |
| 2026-05-08 07:07 | 42.03309 | 26.36979 | 35102 ft | 487 kts | 141° |
| 2026-05-08 07:07 | 41.98349 | 26.43097 | 35105 ft | 487 kts | 141° |
| 2026-05-08 07:08 | 41.93352 | 26.49241 | 35100 ft | 487 kts | 141° |
| 2026-05-08 07:08 | 41.88343 | 26.55380 | 35099 ft | 488 kts | 140° |
| 2026-05-08 07:09 | 41.83822 | 26.62224 | 35095 ft | 491 kts | 132° |
| 2026-05-08 07:09 | 41.79468 | 26.69283 | 35084 ft | 491 kts | 132° |
| 2026-05-08 07:10 | 41.75133 | 26.76288 | 35099 ft | 492 kts | 132° |
| 2026-05-08 07:10 | 41.70765 | 26.83347 | 35103 ft | 492 kts | 132° |
| 2026-05-08 07:11 | 41.66386 | 26.90383 | 35105 ft | 492 kts | 132° |
| 2026-05-08 07:11 | 41.61989 | 26.97406 | 35106 ft | 493 kts | 132° |
| 2026-05-08 07:12 | 41.57627 | 27.04378 | 35107 ft | 493 kts | 131° |
| 2026-05-08 07:12 | 41.54016 | 27.12140 | 35110 ft | 494 kts | 114° |
| 2026-05-08 07:13 | 41.51247 | 27.20540 | 35109 ft | 494 kts | 114° |
| 2026-05-08 07:13 | 41.48451 | 27.28857 | 35112 ft | 495 kts | 114° |
| 2026-05-08 07:14 | 41.45619 | 27.37218 | 35121 ft | 494 kts | 114° |
| 2026-05-08 07:14 | 41.42793 | 27.45579 | 35127 ft | 495 kts | 114° |
| 2026-05-08 07:15 | 41.39967 | 27.53926 | 35128 ft | 494 kts | 114° |
| 2026-05-08 07:15 | 41.37308 | 27.62333 | 35138 ft | 493 kts | 105° |
| 2026-05-08 07:16 | 41.36260 | 27.71222 | 35133 ft | 487 kts | 86° |
| 2026-05-08 07:16 | 41.36819 | 27.80145 | 35134 ft | 483 kts | 80° |
| 2026-05-08 07:17 | 41.37521 | 27.89046 | 35134 ft | 483 kts | 80° |
| 2026-05-08 07:17 | 41.38197 | 27.97944 | 35113 ft | 485 kts | 81° |
| 2026-05-08 07:18 | 41.37962 | 28.06916 | 35106 ft | 493 kts | 99° |
| 2026-05-08 07:18 | 41.36620 | 28.15882 | 35109 ft | 494 kts | 99° |
| 2026-05-08 07:19 | 41.35294 | 28.24859 | 35112 ft | 495 kts | 99° |
| 2026-05-08 07:19 | 41.33965 | 28.33853 | 35113 ft | 495 kts | 99° |
| 2026-05-08 07:20 | 41.32635 | 28.42777 | 35119 ft | 495 kts | 99° |
| 2026-05-08 07:20 | 41.31280 | 28.51749 | 35120 ft | 495 kts | 99° |
| 2026-05-08 07:21 | 41.30760 | 28.60789 | 35113 ft | 490 kts | 87° |
| 2026-05-08 07:21 | 41.30770 | 28.69833 | 34500 ft | 487 kts | 86° |
| 2026-05-08 07:22 | 41.30782 | 28.74267 | 33925 ft | 485 kts | 86° |
| 2026-05-08 07:22 | 41.30790 | 28.78731 | 33406 ft | 480 kts | 86° |
| 2026-05-08 07:22 | 41.30792 | 28.83144 | 32912 ft | 475 kts | 87° |
| 2026-05-08 07:22 | 41.30790 | 28.87510 | 32431 ft | 470 kts | 87° |
| 2026-05-08 07:23 | 41.30784 | 28.91832 | 31966 ft | 465 kts | 87° |
| 2026-05-08 07:23 | 41.30778 | 28.96105 | 31499 ft | 459 kts | 88° |
| 2026-05-08 07:23 | 41.30771 | 29.00327 | 31040 ft | 454 kts | 88° |
| 2026-05-08 07:23 | 41.30762 | 29.04506 | 30576 ft | 449 kts | 88° |
| 2026-05-08 07:24 | 41.30751 | 29.08632 | 30122 ft | 444 kts | 88° |
| 2026-05-08 07:24 | 41.30738 | 29.12663 | 29678 ft | 439 kts | 88° |
| 2026-05-08 07:24 | 41.30725 | 29.16696 | 29192 ft | 435 kts | 88° |
| 2026-05-08 07:24 | 41.30715 | 29.20680 | 28899 ft | 425 kts | 88° |
| 2026-05-08 07:25 | 41.30711 | 29.24567 | 28614 ft | 416 kts | 88° |
| 2026-05-08 07:25 | 41.30729 | 29.28394 | 28209 ft | 412 kts | 88° |
| 2026-05-08 07:25 | 41.30795 | 29.35935 | 27317 ft | 404 kts | 87° |
| 2026-05-08 07:26 | 41.31022 | 29.39627 | 26875 ft | 397 kts | 75° |
| 2026-05-08 07:26 | 41.31945 | 29.42981 | 26402 ft | 389 kts | 57° |
| 2026-05-08 07:26 | 41.33533 | 29.45826 | 25939 ft | 379 kts | 40° |
| 2026-05-08 07:26 | 41.35583 | 29.47960 | 25461 ft | 372 kts | 31° |
| 2026-05-08 07:27 | 41.37718 | 29.49898 | 24973 ft | 371 kts | 31° |
| 2026-05-08 07:27 | 41.39841 | 29.51832 | 24513 ft | 368 kts | 31° |
| 2026-05-08 07:27 | 41.41945 | 29.53752 | 24041 ft | 366 kts | 31° |
| 2026-05-08 07:27 | 41.44036 | 29.55668 | 23584 ft | 363 kts | 31° |
| 2026-05-08 07:28 | 41.46007 | 29.57759 | 23143 ft | 364 kts | 46° |
| 2026-05-08 07:28 | 41.47228 | 29.60706 | 22739 ft | 368 kts | 73° |
| 2026-05-08 07:28 | 41.47380 | 29.64052 | 22316 ft | 370 kts | 99° |
| 2026-05-08 07:28 | 41.46503 | 29.67258 | 21855 ft | 370 kts | 118° |
| 2026-05-08 07:29 | 41.45119 | 29.70143 | 21407 ft | 369 kts | 127° |
| 2026-05-08 07:29 | 41.43533 | 29.72805 | 20984 ft | 367 kts | 130° |
| 2026-05-08 07:29 | 41.41899 | 29.75398 | 20582 ft | 364 kts | 130° |
| 2026-05-08 07:29 | 41.40301 | 29.78019 | 20176 ft | 362 kts | 128° |
| 2026-05-08 07:30 | 41.38795 | 29.80651 | 19999 ft | 352 kts | 126° |
| 2026-05-08 07:30 | 41.37403 | 29.83268 | 19877 ft | 341 kts | 120° |
| 2026-05-08 07:30 | 41.36359 | 29.86061 | 19655 ft | 334 kts | 114° |
| 2026-05-08 07:30 | 41.35382 | 29.88795 | 19283 ft | 329 kts | 115° |
| 2026-05-08 07:31 | 41.34394 | 29.91522 | 18692 ft | 326 kts | 115° |
| 2026-05-08 07:31 | 41.33402 | 29.94222 | 18131 ft | 323 kts | 116° |
| 2026-05-08 07:31 | 41.32169 | 29.96690 | 17576 ft | 320 kts | 132° |
| 2026-05-08 07:31 | 41.30654 | 29.98835 | 17007 ft | 317 kts | 133° |
| 2026-05-08 07:32 | 41.29147 | 30.00958 | 16464 ft | 314 kts | 133° |
| 2026-05-08 07:32 | 41.27658 | 30.03065 | 15913 ft | 311 kts | 133° |
| 2026-05-08 07:32 | 41.26172 | 30.05137 | 15372 ft | 308 kts | 137° |
| 2026-05-08 07:32 | 41.24469 | 30.06762 | 14835 ft | 304 kts | 151° |
| 2026-05-08 07:33 | 41.22636 | 30.08153 | 14294 ft | 302 kts | 150° |
| 2026-05-08 07:33 | 41.20818 | 30.09536 | 13761 ft | 300 kts | 150° |
| 2026-05-08 07:33 | 41.19014 | 30.10907 | 13240 ft | 297 kts | 150° |
| 2026-05-08 07:33 | 41.17215 | 30.12230 | 12699 ft | 294 kts | 156° |
| 2026-05-08 07:34 | 41.15284 | 30.13050 | 12172 ft | 290 kts | 168° |
| 2026-05-08 07:34 | 41.13321 | 30.13630 | 11612 ft | 288 kts | 168° |
| 2026-05-08 07:34 | 41.11376 | 30.14215 | 11129 ft | 284 kts | 168° |
| 2026-05-08 07:34 | 41.09475 | 30.14789 | 11007 ft | 279 kts | 168° |
| 2026-05-08 07:35 | 41.07574 | 30.15356 | 11016 ft | 280 kts | 171° |
| 2026-05-08 07:35 | 41.05667 | 30.15542 | 11017 ft | 278 kts | 185° |
| 2026-05-08 07:35 | 41.03733 | 30.15361 | 11019 ft | 279 kts | 186° |
| 2026-05-08 07:35 | 41.01805 | 30.15123 | 11016 ft | 277 kts | 193° |
| 2026-05-08 07:36 | 41.00059 | 30.14128 | 11017 ft | 273 kts | 218° |
| 2026-05-08 07:36 | 40.98730 | 30.12372 | 11018 ft | 270 kts | 237° |
| 2026-05-08 07:36 | 40.97893 | 30.10151 | 10725 ft | 272 kts | 256° |
| 2026-05-08 07:36 | 40.97662 | 30.07690 | 10390 ft | 269 kts | 275° |
| 2026-05-08 07:37 | 40.97989 | 30.05269 | 10078 ft | 267 kts | 284° |
| 2026-05-08 07:37 | 40.98397 | 30.02908 | 9763 ft | 266 kts | 283° |
| 2026-05-08 07:37 | 40.98800 | 30.00530 | 9459 ft | 264 kts | 283° |
| 2026-05-08 07:37 | 40.99197 | 29.98169 | 9177 ft | 261 kts | 283° |
| 2026-05-08 07:38 | 40.99588 | 29.95834 | 8920 ft | 259 kts | 282° |
| 2026-05-08 07:38 | 40.99976 | 29.93512 | 8660 ft | 258 kts | 282° |
| 2026-05-08 07:38 | 41.00361 | 29.91200 | 8408 ft | 257 kts | 282° |
| 2026-05-08 07:38 | 41.00746 | 29.88895 | 8159 ft | 256 kts | 282° |
| 2026-05-08 07:39 | 41.01128 | 29.86601 | 7900 ft | 255 kts | 282° |
| 2026-05-08 07:39 | 41.01506 | 29.84345 | 7649 ft | 255 kts | 282° |
| 2026-05-08 07:39 | 41.01891 | 29.82060 | 7392 ft | 254 kts | 282° |
| 2026-05-08 07:39 | 41.02270 | 29.79790 | 7136 ft | 253 kts | 282° |
| 2026-05-08 07:40 | 41.02649 | 29.77517 | 6887 ft | 252 kts | 282° |
| 2026-05-08 07:40 | 41.03025 | 29.75263 | 6664 ft | 247 kts | 282° |
| 2026-05-08 07:40 | 41.03387 | 29.73093 | 6538 ft | 236 kts | 282° |
| 2026-05-08 07:40 | 41.03686 | 29.71015 | 6422 ft | 224 kts | 273° |
| 2026-05-08 07:41 | 41.03583 | 29.69007 | 6301 ft | 215 kts | 256° |
| 2026-05-08 07:41 | 41.03069 | 29.67189 | 6093 ft | 209 kts | 242° |
| 2026-05-08 07:41 | 41.02396 | 29.65494 | 5914 ft | 207 kts | 242° |
| 2026-05-08 07:41 | 41.01739 | 29.63820 | 5822 ft | 208 kts | 243° |
| 2026-05-08 07:42 | 41.01077 | 29.62121 | 5751 ft | 208 kts | 243° |
| 2026-05-08 07:42 | 41.00413 | 29.60417 | 5681 ft | 208 kts | 243° |
| 2026-05-08 07:42 | 40.99746 | 29.58716 | 5629 ft | 208 kts | 242° |
| 2026-05-08 07:42 | 40.99080 | 29.57026 | 5567 ft | 207 kts | 242° |
| 2026-05-08 07:43 | 40.98415 | 29.55332 | 5509 ft | 208 kts | 242° |
| 2026-05-08 07:43 | 40.97748 | 29.53636 | 5444 ft | 207 kts | 242° |
| 2026-05-08 07:43 | 40.97084 | 29.51946 | 5384 ft | 207 kts | 242° |
| 2026-05-08 07:43 | 40.96428 | 29.50278 | 5332 ft | 207 kts | 242° |
| 2026-05-08 07:44 | 40.95765 | 29.48595 | 5265 ft | 207 kts | 242° |
| 2026-05-08 07:44 | 40.95102 | 29.46909 | 5202 ft | 206 kts | 242° |
| 2026-05-08 07:44 | 40.94438 | 29.45228 | 5141 ft | 206 kts | 242° |
| 2026-05-08 07:44 | 40.93774 | 29.43546 | 5082 ft | 206 kts | 242° |
| 2026-05-08 07:45 | 40.93113 | 29.41868 | 5028 ft | 206 kts | 242° |
| 2026-05-08 07:45 | 40.92450 | 29.40188 | 4954 ft | 206 kts | 242° |
| 2026-05-08 07:45 | 40.91789 | 29.38510 | 4890 ft | 205 kts | 242° |
| 2026-05-08 07:45 | 40.91073 | 29.36912 | 4845 ft | 205 kts | 227° |
| 2026-05-08 07:46 | 40.89922 | 29.35858 | 4796 ft | 201 kts | 199° |
| 2026-05-08 07:46 | 40.88557 | 29.35681 | 4725 ft | 199 kts | 171° |
| 2026-05-08 07:46 | 40.87287 | 29.36395 | 4684 ft | 201 kts | 142° |
| 2026-05-08 07:46 | 40.86431 | 29.37844 | 4647 ft | 204 kts | 113° |
| 2026-05-08 07:47 | 40.86212 | 29.39680 | 4600 ft | 205 kts | 83° |
| 2026-05-08 07:47 | 40.86702 | 29.41432 | 4536 ft | 206 kts | 53° |
| 2026-05-08 07:47 | 40.87754 | 29.42693 | 4492 ft | 206 kts | 35° |
| 2026-05-08 07:47 | 40.88915 | 29.43807 | 4441 ft | 206 kts | 36° |
| 2026-05-08 07:48 | 40.89946 | 29.45112 | 4387 ft | 206 kts | 54° |
| 2026-05-08 07:48 | 40.90607 | 29.46757 | 4333 ft | 206 kts | 72° |
| 2026-05-08 07:48 | 40.90859 | 29.48609 | 4283 ft | 205 kts | 88° |
| 2026-05-08 07:48 | 40.90939 | 29.50492 | 4242 ft | 206 kts | 87° |
| 2026-05-08 07:49 | 40.91028 | 29.52381 | 4185 ft | 206 kts | 87° |
| 2026-05-08 07:49 | 40.91119 | 29.54269 | 4132 ft | 205 kts | 87° |
| 2026-05-08 07:49 | 40.91211 | 29.56148 | 4078 ft | 205 kts | 87° |
| 2026-05-08 07:49 | 40.91303 | 29.58026 | 4018 ft | 202 kts | 87° |
| 2026-05-08 07:50 | 40.91391 | 29.59826 | 3904 ft | 191 kts | 87° |
| 2026-05-08 07:50 | 40.91481 | 29.61518 | 3778 ft | 184 kts | 84° |
| 2026-05-08 07:50 | 40.91831 | 29.63123 | 3650 ft | 183 kts | 64° |
| 2026-05-08 07:50 | 40.92554 | 29.64494 | 3560 ft | 182 kts | 45° |
| 2026-05-08 07:51 | 40.93566 | 29.65485 | 3502 ft | 181 kts | 26° |
| 2026-05-08 07:51 | 40.94759 | 29.66005 | 3510 ft | 181 kts | 7° |
| 2026-05-08 07:51 | 40.96008 | 29.66013 | 3505 ft | 179 kts | 349° |
| 2026-05-08 07:51 | 40.97182 | 29.65515 | 3502 ft | 177 kts | 330° |
| 2026-05-08 07:52 | 40.98173 | 29.64570 | 3508 ft | 176 kts | 313° |
| 2026-05-08 07:52 | 40.98885 | 29.63305 | 3507 ft | 173 kts | 295° |
| 2026-05-08 07:52 | 40.99277 | 29.61808 | 3508 ft | 172 kts | 278° |
| 2026-05-08 07:52 | 40.99304 | 29.60242 | 3507 ft | 171 kts | 259° |
| 2026-05-08 07:53 | 40.98925 | 29.58764 | 3511 ft | 170 kts | 243° |
| 2026-05-08 07:53 | 40.98408 | 29.57351 | 3509 ft | 170 kts | 243° |
| 2026-05-08 07:53 | 40.97893 | 29.55942 | 3514 ft | 170 kts | 243° |
| 2026-05-08 07:53 | 40.97378 | 29.54529 | 3506 ft | 170 kts | 243° |
| 2026-05-08 07:54 | 40.96863 | 29.53118 | 3516 ft | 171 kts | 243° |
| 2026-05-08 07:54 | 40.96353 | 29.51725 | 3508 ft | 170 kts | 243° |
| 2026-05-08 07:54 | 40.95836 | 29.50309 | 3366 ft | 172 kts | 243° |
| 2026-05-08 07:54 | 40.95317 | 29.48888 | 3123 ft | 170 kts | 243° |
| 2026-05-08 07:55 | 40.94807 | 29.47494 | 2895 ft | 166 kts | 243° |
| 2026-05-08 07:55 | 40.94325 | 29.46179 | 2657 ft | 152 kts | 243° |
| 2026-05-08 07:55 | 40.93874 | 29.44946 | 2407 ft | 147 kts | 243° |
| 2026-05-08 07:55 | 40.93441 | 29.43762 | 2186 ft | 140 kts | 243° |
| 2026-05-08 07:56 | 40.93017 | 29.42603 | 1976 ft | 140 kts | 242° |
| 2026-05-08 07:56 | 40.92597 | 29.41459 | 1750 ft | 138 kts | 242° |
| 2026-05-08 07:56 | 40.92185 | 29.40333 | 1555 ft | 137 kts | 243° |
| 2026-05-08 07:56 | 40.91769 | 29.39200 | 1340 ft | 137 kts | 243° |
| 2026-05-08 07:57 | 40.91355 | 29.38071 | 1121 ft | 137 kts | 243° |
| 2026-05-08 07:57 | 40.90939 | 29.36937 | 917 ft | 137 kts | 243° |
| 2026-05-08 07:57 | 40.90523 | 29.35806 | 694 ft | 137 kts | 243° |
| 2026-05-08 07:57 | 40.90115 | 29.34676 | 505 ft | 136 kts | 244° |
| 2026-05-08 07:58 | 40.89705 | 29.33553 | 322 ft | 135 kts | 242° |
| 2026-05-08 07:58 | 40.89330 | 29.32549 | 303 ft | 101 kts | 243° |
| 2026-05-08 07:58 | 40.89167 | 29.32116 | 300 ft | 36 kts | 246° |
| 2026-05-08 07:58 | 40.89119 | 29.31813 | 301 ft | 31 kts | 274° |
| 2026-05-08 07:59 | 40.89129 | 29.31642 | 301 ft | 18 kts | 276° |
| 2026-05-08 07:59 | 40.89142 | 29.31483 | 300 ft | 16 kts | 284° |
| 2026-05-08 07:59 | 40.89224 | 29.31436 | 301 ft | 14 kts | 33° |
| 2026-05-08 07:59 | 40.89302 | 29.31463 | 302 ft | 11 kts | 338° |
| 2026-05-08 08:00 | 40.89365 | 29.31422 | 304 ft | 8 kts | 333° |
| 2026-05-08 08:00 | 40.89406 | 29.31394 | 304 ft | 5 kts | 333° |
| 2026-05-08 08:00 | 40.89437 | 29.31374 | 304 ft | 10 kts | 335° |
| 2026-05-08 08:00 | 40.89537 | 29.31322 | 308 ft | 20 kts | 340° |
| 2026-05-08 08:01 | 40.89689 | 29.31255 | 311 ft | 20 kts | 339° |
| 2026-05-08 08:01 | 40.89780 | 29.31153 | 310 ft | 18 kts | 312° |
| 2026-05-08 08:01 | 40.89885 | 29.31060 | 311 ft | 19 kts | 336° |
| 2026-05-08 08:01 | 40.90016 | 29.31000 | 311 ft | 21 kts | 337° |
| 2026-05-08 08:02 | 40.90114 | 29.30937 | 311 ft | 12 kts | 334° |
| 2026-05-08 08:02 | 40.90187 | 29.30890 | 310 ft | 11 kts | 334° |
| 2026-05-08 08:02 | 40.90249 | 29.30898 | 310 ft | 9 kts | 50° |
| 2026-05-08 08:02 | 40.90276 | 29.30965 | 310 ft | 8 kts | 64° |
| 2026-05-08 08:03 | 40.90298 | 29.31024 | 311 ft | 7 kts | 64° |
| 2026-05-08 08:03 | 40.90317 | 29.31075 | 311 ft | 6 kts | 64° |
| 2026-05-08 08:03 | 40.90333 | 29.31119 | 309 ft | 5 kts | 64° |
| 2026-05-08 08:03 | 40.90347 | 29.31156 | 310 ft | 4 kts | 64° |
| 2026-05-08 08:04 | 40.90359 | 29.31187 | 311 ft | 4 kts | 64° |
| 2026-05-08 08:04 | 40.90371 | 29.31221 | 311 ft | 4 kts | 64° |
| 2026-05-08 08:04 | 40.90381 | 29.31251 | 311 ft | 3 kts | 65° |
| 2026-05-08 08:04 | 40.90390 | 29.31276 | 311 ft | 3 kts | 65° |
| 2026-05-08 08:05 | 40.90398 | 29.31298 | 311 ft | 2 kts | 66° |
| 2026-05-08 08:05 | 40.90404 | 29.31316 | 311 ft | 2 kts | 66° |
| 2026-05-08 08:05 | 40.90407 | 29.31327 | 311 ft | 1 kts | 66° |
| 2026-05-08 08:05 | 40.90410 | 29.31334 | 311 ft | 0 kts | 66° |
| 2026-05-08 08:06 | 40.90411 | 29.31337 | 311 ft | 0 kts | 66° |
| 2026-05-08 08:06 | 40.90411 | 29.31338 | 310 ft | 0 kts | 66° |
| 2026-05-08 08:06 | 40.90411 | 29.31339 | 310 ft | 2 kts | 66° |
| 2026-05-08 08:07 | 40.90428 | 29.31388 | 311 ft | 10 kts | 63° |
| 2026-05-08 08:07 | 40.90459 | 29.31466 | 310 ft | 9 kts | 62° |
| 2026-05-08 08:07 | 40.90486 | 29.31534 | 311 ft | 8 kts | 63° |
| 2026-05-08 08:07 | 40.90510 | 29.31595 | 311 ft | 7 kts | 63° |
| 2026-05-08 08:08 | 40.90531 | 29.31648 | 310 ft | 6 kts | 63° |
| 2026-05-08 08:08 | 40.90549 | 29.31695 | 310 ft | 5 kts | 62° |
| 2026-05-08 08:08 | 40.90565 | 29.31736 | 311 ft | 5 kts | 62° |
| 2026-05-08 08:08 | 40.90579 | 29.31772 | 310 ft | 4 kts | 62° |
| 2026-05-08 08:09 | 40.90592 | 29.31803 | 309 ft | 4 kts | 62° |
| 2026-05-08 08:09 | 40.90602 | 29.31829 | 310 ft | 3 kts | 62° |
| 2026-05-08 08:09 | 40.90610 | 29.31851 | 311 ft | 2 kts | 62° |
| 2026-05-08 08:09 | 40.90617 | 29.31868 | 311 ft | 2 kts | 62° |
| 2026-05-08 08:10 | 40.90622 | 29.31879 | 311 ft | 1 kts | 62° |
| 2026-05-08 08:10 | 40.90624 | 29.31884 | 311 ft | 0 kts | 57° |
| 2026-05-08 08:10 | 40.90632 | 29.31885 | 311 ft | 1 kts | 5° |
| 2026-05-08 08:10 | 40.90635 | 29.31883 | 311 ft | 0 kts | 349° |
| 2026-05-08 08:11 | 40.90648 | 29.31876 | 311 ft | 9 kts | 334° |
| 2026-05-08 08:11 | 40.90706 | 29.31836 | 311 ft | 0 kts | 333° |